Holly Springs, Texas
Current Conditions -  °F | °C
As of 8:35 PM on Sunday 21 Dec 2014 (Local Time) from KJAS Reporting Station
Overcast Overcast  
Wind Chill: 49°   Ceiling: 1100
Heat Index: 49°   Visibility: 7mi
Dew Point: 47°   Wind: 0mph
Humidity: 94%   Direction: NA
Pressure: 29.97"   Gusts: NA
Location:  30.9529°N, 94.0707°W
Report Text: KJAS 220235Z AUTO 00000KT 7SM OVC011 09/09 A2997 RMK AO2 T00940085
Loading
Personal Weather Stations






























Interactive Weather Map New forecast layout! Learn more

10-Day Weather Forecast

Advertisements
Track Severe Weather on mobile